Search for airport 
image banner adimage banner ad
image banner ad

DAOV - Ghriss

Located in Ghriss, Algeria

ICAO - DAOV, IATA - MUW

Data provided by Airmate  

General information

Coordinates: N35°13'1" E0°8'54"
Elevation is 1686 feet MSL.
 
Rated:
View ratings: [VIEW]


View others Airports in Mascara Province

Operational data

Open for public use
Current time UTC:
Current local time:
Weather
METAR: DAOV 122300Z 01005KT 8000 SCT030 23/19 Q1017
TAF: TAF DAOV 121700Z 1218/1303 36012KT 8000 SCT030CB BECMG 1220/1223 VRB02KT 9999 SCT026 FEW030CB
View NOTAMs / SUP AIP / TFR affecting this airport [VIEW]
Communications frequencies: [VIEW]

Runways:

RWY identifierQFULength (ft)Width (ft)SurfaceLDA (ft)
0882°557798ASP
26262°557798

Airport contact information

Address: Ghriss Algeria

Satellite view of DAOV